createdAt,value
2023-03-05T00:00:18.833Z,99491.77
2023-03-05T00:03:06.442Z,99490.26
2023-03-05T00:05:34.765Z,99491.67
2023-03-05T00:08:02.696Z,99489.43
2023-03-05T00:10:30.404Z,99482.92
2023-03-05T00:12:58.134Z,99478.71
2023-03-05T00:15:25.876Z,99477.94
2023-03-05T00:17:54.721Z,99472.04
2023-03-05T00:20:22.627Z,99465.29
2023-03-05T00:22:50.345Z,99461.98
2023-03-05T00:25:18.073Z,99457.55
2023-03-05T00:27:45.822Z,99452.67
2023-03-05T00:30:14.031Z,99450.31
2023-03-05T00:32:41.845Z,99449.79
2023-03-05T00:35:10.013Z,99448.61
2023-03-05T00:37:37.759Z,99450.23
2023-03-05T00:40:06.032Z,99454.19
2023-03-05T00:42:38.463Z,99452.67
2023-03-05T00:45:06.641Z,99454.23
2023-03-05T00:47:35.311Z,99453.09
2023-03-05T00:50:03.735Z,99448.10
2023-03-05T00:52:31.512Z,99450.30
2023-03-05T00:54:59.353Z,99445.29
2023-03-05T00:57:27.132Z,99447.90
2023-03-05T00:59:54.901Z,99441.25
2023-03-05T01:02:22.749Z,99438.19
2023-03-05T01:04:51.748Z,99438.58
2023-03-05T01:07:19.619Z,99430.03
2023-03-05T01:09:47.417Z,99425.05
2023-03-05T01:12:15.435Z,99423.39
2023-03-05T01:14:43.177Z,99422.50
2023-03-05T01:17:10.978Z,99421.84
2023-03-05T01:19:38.712Z,99420.74
2023-03-05T01:22:06.585Z,99421.33
2023-03-05T01:24:34.274Z,99422.75
2023-03-05T01:27:02.047Z,99423.23
2023-03-05T01:29:29.869Z,99423.86
2023-03-05T01:31:57.610Z,99425.28
2023-03-05T01:34:25.461Z,99426.17
2023-03-05T01:36:53.153Z,99426.30
2023-03-05T01:39:20.896Z,99418.58
2023-03-05T01:41:48.680Z,99418.32
2023-03-05T01:44:24.062Z,99413.73
2023-03-05T01:46:51.930Z,99409.41
2023-03-05T01:49:19.596Z,99407.54
2023-03-05T01:51:50.512Z,99409.67
2023-03-05T01:54:21.155Z,99406.56
2023-03-05T01:56:50.199Z,99402.52
2023-03-05T01:59:18.942Z,99398.29
2023-03-05T02:01:49.106Z,99395.21
2023-03-05T02:04:18.047Z,99391.27
2023-03-05T02:06:46.957Z,99392.25
2023-03-05T02:09:14.767Z,99388.30
2023-03-05T02:11:43.109Z,99383.73
2023-03-05T02:14:10.877Z,99388.27
2023-03-05T02:16:38.923Z,99383.94
2023-03-05T02:19:08.447Z,99384.92
2023-03-05T02:21:38.468Z,99385.71
2023-03-05T02:24:06.495Z,99385.65
2023-03-05T02:26:34.250Z,99378.86
2023-03-05T02:29:03.959Z,99375.11
2023-03-05T02:31:31.720Z,99375.05
2023-03-05T02:33:59.800Z,99374.20
2023-03-05T02:36:27.700Z,99370.36
2023-03-05T02:38:57.071Z,99370.31
2023-03-05T02:41:25.188Z,99365.99
2023-03-05T02:43:53.778Z,99361.94
2023-03-05T02:46:21.753Z,99365.46
2023-03-05T02:48:50.013Z,99363.75
2023-03-05T02:51:17.995Z,99369.13
2023-03-05T02:53:46.612Z,99364.80
2023-03-05T02:56:14.993Z,99364.42
2023-03-05T02:58:42.973Z,99361.28
2023-03-05T03:01:11.383Z,99363.42
2023-03-05T03:03:39.424Z,99357.77
2023-03-05T03:06:10.387Z,99362.86
2023-03-05T03:08:38.073Z,99355.91
2023-03-05T03:11:06.796Z,99354.93
2023-03-05T03:13:34.533Z,99351.83
2023-03-05T03:16:03.284Z,99354.31
2023-03-05T03:18:31.387Z,99353.36
2023-03-05T03:20:59.604Z,99356.58
2023-03-05T03:23:27.876Z,99355.06
2023-03-05T03:25:55.606Z,99352.65
2023-03-05T03:28:23.500Z,99352.30
2023-03-05T03:30:51.413Z,99345.71
2023-03-05T03:33:19.346Z,99352.90
2023-03-05T03:35:47.250Z,99345.36
2023-03-05T03:38:15.198Z,99345.53
2023-03-05T03:40:43.233Z,99338.54
2023-03-05T03:43:11.096Z,99337.77
2023-03-05T03:45:43.190Z,99336.58
2023-03-05T03:48:11.341Z,99332.29
2023-03-05T03:50:40.042Z,99327.81
2023-03-05T03:53:08.216Z,99327.36
2023-03-05T03:55:35.984Z,99320.65
2023-03-05T03:58:04.143Z,99323.45
2023-03-05T04:00:31.931Z,99321.19
2023-03-05T04:02:59.976Z,99320.45
2023-03-05T04:05:27.799Z,99315.51
2023-03-05T04:07:55.506Z,99319.16
2023-03-05T04:10:23.241Z,99321.02
2023-03-05T04:12:50.957Z,99318.39
2023-03-05T04:15:18.737Z,99311.54
2023-03-05T04:17:46.537Z,99315.70
2023-03-05T04:20:14.300Z,99310.76
2023-03-05T04:22:42.442Z,99302.52
2023-03-05T04:25:10.630Z,99296.42
2023-03-05T04:27:40.132Z,99281.19
2023-03-05T04:30:08.885Z,99268.65
2023-03-05T04:32:36.648Z,99266.15
2023-03-05T04:35:04.725Z,99270.88
2023-03-05T04:37:32.915Z,99273.56
2023-03-05T04:40:00.627Z,99264.84
2023-03-05T04:42:28.458Z,99262.29
2023-03-05T04:44:56.542Z,99256.29
2023-03-05T04:47:24.280Z,99260.48
2023-03-05T04:49:52.028Z,99258.77
2023-03-05T04:52:19.751Z,99255.66
2023-03-05T04:54:47.496Z,99257.18
2023-03-05T04:57:15.272Z,99253.59
2023-03-05T04:59:43.020Z,99246.18
2023-03-05T05:02:10.844Z,99235.55
2023-03-05T05:04:38.566Z,99222.50
2023-03-05T05:07:07.632Z,99211.90
2023-03-05T05:09:35.373Z,99212.20
2023-03-05T05:12:03.208Z,99217.02
2023-03-05T05:14:30.968Z,99217.64
2023-03-05T05:16:59.612Z,99223.56
2023-03-05T05:19:27.437Z,99228.77
2023-03-05T05:21:55.289Z,99234.61
2023-03-05T05:24:23.822Z,99240.32
2023-03-05T05:26:53.740Z,99238.07
2023-03-05T05:29:21.814Z,99230.72
2023-03-05T05:31:49.580Z,99235.86
2023-03-05T05:34:17.398Z,99235.86
2023-03-05T05:36:45.185Z,99237.23
2023-03-05T05:39:12.872Z,99247.27
2023-03-05T05:41:40.615Z,99250.36
2023-03-05T05:44:08.341Z,99249.38
2023-03-05T05:46:36.161Z,99253.09
2023-03-05T05:49:04.030Z,99250.85
2023-03-05T05:51:31.816Z,99253.57
2023-03-05T05:53:59.583Z,99251.14
2023-03-05T05:56:27.555Z,99250.09
2023-03-05T05:58:55.487Z,99248.60
2023-03-05T06:01:26.373Z,99239.47
2023-03-05T06:03:54.483Z,99247.96
2023-03-05T06:06:23.158Z,99241.39
2023-03-05T06:08:51.121Z,99244.98
2023-03-05T06:11:19.579Z,99241.11
2023-03-05T06:13:48.369Z,99237.82
2023-03-05T06:16:17.712Z,99241.88
2023-03-05T06:18:45.785Z,99230.98
2023-03-05T06:21:15.458Z,99232.48
2023-03-05T06:23:43.621Z,99232.25
2023-03-05T06:26:12.438Z,99228.55
2023-03-05T06:28:40.894Z,99233.23
2023-03-05T06:31:13.057Z,99232.27
2023-03-05T06:33:42.981Z,99236.45
2023-03-05T06:36:12.066Z,99239.55
2023-03-05T06:38:40.040Z,99243.99
2023-03-05T06:41:10.667Z,99245.28
2023-03-05T06:43:40.198Z,99244.26
2023-03-05T06:46:15.568Z,99245.36
2023-03-05T06:48:43.503Z,99243.79
2023-03-05T06:51:18.831Z,99245.64
2023-03-05T06:53:49.298Z,99240.71
2023-03-05T06:56:18.159Z,99240.83
2023-03-05T06:58:47.180Z,99247.98
2023-03-05T07:01:15.273Z,99245.75
2023-03-05T07:03:43.206Z,99243.27
2023-03-05T07:06:12.790Z,99246.48
2023-03-05T07:08:40.600Z,99246.21
2023-03-05T07:11:16.233Z,99243.11
2023-03-05T07:13:44.374Z,99241.86
2023-03-05T07:16:14.612Z,99250.33
2023-03-05T07:18:42.440Z,99248.13
2023-03-05T07:21:12.818Z,99244.77
2023-03-05T07:23:40.803Z,99245.75
2023-03-05T07:26:08.536Z,99248.64
2023-03-05T07:28:36.420Z,99247.08
2023-03-05T07:31:06.063Z,99247.30
2023-03-05T07:33:35.317Z,99247.13
2023-03-05T07:36:04.720Z,99241.20
2023-03-05T07:38:32.446Z,99246.70
2023-03-05T07:41:04.029Z,99247.29
2023-03-05T07:43:31.793Z,99240.11
2023-03-05T07:45:59.638Z,99246.52
2023-03-05T07:48:27.341Z,99244.98
2023-03-05T07:51:06.685Z,99244.43
2023-03-05T07:53:34.749Z,99248.69
2023-03-05T07:56:03.075Z,99249.54
2023-03-05T07:58:30.863Z,99249.38
2023-03-05T08:00:58.628Z,99254.16
2023-03-05T08:03:26.339Z,99245.27
2023-03-05T08:05:54.286Z,99253.88
2023-03-05T08:08:22.075Z,99243.86
2023-03-05T08:10:49.857Z,99246.26
2023-03-05T08:13:17.643Z,99242.39
2023-03-05T08:15:46.139Z,99244.85
2023-03-05T08:18:15.471Z,99242.70
2023-03-05T08:20:43.211Z,99247.56
2023-03-05T08:23:10.894Z,99251.44
2023-03-05T08:25:38.880Z,99247.71
2023-03-05T08:28:07.063Z,99241.77
2023-03-05T08:30:34.818Z,99245.19
2023-03-05T08:33:02.693Z,99249.39
2023-03-05T08:35:30.551Z,99244.31
2023-03-05T08:37:58.370Z,99244.28
2023-03-05T08:40:26.168Z,99243.39
2023-03-05T08:42:53.935Z,99234.72
2023-03-05T08:45:21.722Z,99241.67
2023-03-05T08:47:49.693Z,99233.85
2023-03-05T08:50:18.476Z,99235.77
2023-03-05T08:52:46.237Z,99234.07
2023-03-05T08:55:14.009Z,99235.23
2023-03-05T08:57:41.895Z,99234.00
2023-03-05T09:00:10.460Z,99235.80
2023-03-05T09:02:38.441Z,99232.48
2023-03-05T09:05:06.716Z,99236.34
2023-03-05T09:07:34.656Z,99239.16
2023-03-05T09:10:02.344Z,99237.36
2023-03-05T09:12:30.119Z,99231.72
2023-03-05T09:14:57.934Z,99230.83
2023-03-05T09:17:25.632Z,99232.59
2023-03-05T09:19:53.390Z,99229.62
2023-03-05T09:22:21.313Z,99225.67
2023-03-05T09:24:49.049Z,99235.47
2023-03-05T09:27:16.749Z,99229.60
2023-03-05T09:29:44.462Z,99231.69
2023-03-05T09:32:12.216Z,99226.66
2023-03-05T09:34:40.117Z,99229.19
2023-03-05T09:37:08.690Z,99224.69
2023-03-05T09:39:36.757Z,99228.50
2023-03-05T09:42:04.480Z,99221.98
2023-03-05T09:44:38.950Z,99228.56
2023-03-05T09:47:22.684Z,99221.20
2023-03-05T09:49:50.429Z,99215.80
2023-03-05T09:52:21.307Z,99219.55
2023-03-05T09:54:53.391Z,99218.10
2023-03-05T09:57:27.915Z,99217.17
2023-03-05T10:00:08.890Z,99212.98
2023-03-05T10:02:45.223Z,99210.46
2023-03-05T10:05:17.719Z,99212.25
2023-03-05T10:07:53.375Z,99214.48
2023-03-05T10:10:25.848Z,99203.54
2023-03-05T10:13:00.073Z,99206.29
2023-03-05T10:15:50.222Z,99201.40
2023-03-05T10:18:18.099Z,99198.45
2023-03-05T10:20:45.975Z,99199.13
2023-03-05T10:23:25.669Z,99192.27
2023-03-05T10:26:03.762Z,99190.61
2023-03-05T10:28:34.545Z,99191.74
2023-03-05T10:31:02.406Z,99192.88
2023-03-05T10:33:32.179Z,99196.27
2023-03-05T10:36:17.306Z,99195.52
2023-03-05T10:39:01.666Z,99193.79
2023-03-05T10:41:37.022Z,99194.14
2023-03-05T10:44:09.536Z,99195.94
2023-03-05T10:46:38.822Z,99194.99
2023-03-05T10:49:06.611Z,99191.92
2023-03-05T10:51:38.056Z,99186.65
2023-03-05T10:54:18.737Z,99192.85
2023-03-05T10:56:46.545Z,99192.32
2023-03-05T10:59:14.267Z,99187.46
2023-03-05T11:01:42.072Z,99182.50
2023-03-05T11:04:25.998Z,99181.09
2023-03-05T11:06:53.855Z,99180.60
2023-03-05T11:09:29.475Z,99178.48
2023-03-05T11:12:00.226Z,99180.98
2023-03-05T11:14:33.498Z,99175.03
2023-03-05T11:17:02.304Z,99175.07
2023-03-05T11:19:33.012Z,99177.04
2023-03-05T11:22:16.894Z,99174.59
2023-03-05T11:24:47.987Z,99169.79
2023-03-05T11:27:23.312Z,99173.00
2023-03-05T11:29:51.520Z,99171.41
2023-03-05T11:32:24.479Z,99170.20
2023-03-05T11:34:55.017Z,99171.30
2023-03-05T11:37:27.547Z,99167.54
2023-03-05T11:40:11.323Z,99166.59
2023-03-05T11:42:40.235Z,99165.51
2023-03-05T11:45:15.575Z,99163.36
2023-03-05T11:47:49.160Z,99159.08
2023-03-05T11:50:22.746Z,99154.48
2023-03-05T11:52:56.266Z,99158.88
2023-03-05T11:55:34.618Z,99156.80
2023-03-05T11:58:18.354Z,99145.75
2023-03-05T12:00:47.065Z,99146.62
2023-03-05T12:03:16.559Z,99149.33
2023-03-05T12:05:47.376Z,99139.39
2023-03-05T12:08:19.728Z,99142.77
2023-03-05T12:10:47.576Z,99140.13
2023-03-05T12:13:35.905Z,99139.01
2023-03-05T12:16:06.706Z,99135.38
2023-03-05T12:18:34.463Z,99125.33
2023-03-05T12:21:28.656Z,99123.92
2023-03-05T12:24:03.762Z,99124.54
2023-03-05T12:26:48.547Z,99118.51
2023-03-05T12:29:32.497Z,99115.17
2023-03-05T12:32:01.311Z,99115.74
2023-03-05T12:34:45.216Z,99107.77
2023-03-05T12:37:33.198Z,99103.89
2023-03-05T12:40:08.794Z,99109.41
2023-03-05T12:42:44.890Z,99103.35
2023-03-05T12:45:14.051Z,99099.98
2023-03-05T12:47:42.660Z,99099.91
2023-03-05T12:50:26.440Z,99090.59
2023-03-05T12:52:56.976Z,99085.13
2023-03-05T12:55:24.674Z,99081.19
2023-03-05T12:57:57.303Z,99070.24
2023-03-05T13:00:33.675Z,99070.81
2023-03-05T13:03:04.483Z,99068.08
2023-03-05T13:05:34.073Z,99070.29
2023-03-05T13:08:17.844Z,99069.77
2023-03-05T13:10:56.701Z,99063.37
2023-03-05T13:13:26.081Z,99064.21
2023-03-05T13:15:53.930Z,99067.71
2023-03-05T13:18:24.226Z,99071.67
2023-03-05T13:21:08.086Z,99072.71
2023-03-05T13:23:35.931Z,99079.59
2023-03-05T13:26:03.904Z,99064.89
2023-03-05T13:28:32.997Z,99049.79
2023-03-05T13:31:02.726Z,99032.56
2023-03-05T13:33:35.400Z,99024.38
2023-03-05T13:36:04.302Z,99007.10
2023-03-05T13:38:38.165Z,99003.98
2023-03-05T13:41:08.689Z,98979.45
2023-03-05T13:43:53.445Z,98983.73
2023-03-05T13:46:29.042Z,98986.95
2023-03-05T13:48:58.491Z,98973.81
2023-03-05T13:51:40.853Z,98966.86
2023-03-05T13:54:10.169Z,98970.01
2023-03-05T13:56:47.953Z,98978.54
2023-03-05T13:59:19.967Z,98980.00
2023-03-05T14:01:48.286Z,98990.04
2023-03-05T14:04:16.594Z,98992.32
2023-03-05T14:07:00.427Z,98990.98
2023-03-05T14:09:29.923Z,98988.80
2023-03-05T14:12:02.914Z,98995.80
2023-03-05T14:14:34.200Z,99006.95
2023-03-05T14:17:17.897Z,99064.64
2023-03-05T14:19:45.709Z,99137.77
2023-03-05T14:22:29.412Z,99113.19
2023-03-05T14:24:57.184Z,99100.36
2023-03-05T14:27:25.445Z,99092.82
2023-03-05T14:29:53.472Z,99075.80
2023-03-05T14:32:37.323Z,99069.30
2023-03-05T14:35:05.995Z,99068.65
2023-03-05T14:37:39.224Z,99064.02
2023-03-05T14:40:07.744Z,99076.90
2023-03-05T14:42:38.766Z,99076.62
2023-03-05T14:45:12.154Z,99070.77
2023-03-05T14:47:39.961Z,99075.44
2023-03-05T14:50:14.665Z,99082.03
2023-03-05T14:52:42.546Z,99070.57
2023-03-05T14:55:15.373Z,99075.70
2023-03-05T14:57:43.153Z,99059.17
2023-03-05T15:00:15.665Z,99055.26
2023-03-05T15:02:43.543Z,99063.27
2023-03-05T15:05:11.695Z,99061.42
2023-03-05T15:07:39.886Z,99053.86
2023-03-05T15:10:08.671Z,99039.08
2023-03-05T15:12:36.433Z,99029.63
2023-03-05T15:15:05.338Z,99022.73
2023-03-05T15:17:37.553Z,99027.17
2023-03-05T15:20:08.266Z,99027.35
2023-03-05T15:22:37.009Z,99033.95
2023-03-05T15:25:05.496Z,99043.66
2023-03-05T15:27:33.204Z,99052.46
2023-03-05T15:30:00.952Z,99052.80
2023-03-05T15:32:30.586Z,99056.09
2023-03-05T15:34:59.023Z,99057.55
2023-03-05T15:37:26.900Z,99056.64
2023-03-05T15:39:54.745Z,99050.23
2023-03-05T15:42:22.539Z,99050.17
2023-03-05T15:44:50.477Z,99043.36
2023-03-05T15:47:18.263Z,99044.18
2023-03-05T15:49:46.001Z,99047.17
2023-03-05T15:52:15.520Z,99049.62
2023-03-05T15:54:43.303Z,99043.23
2023-03-05T15:57:11.973Z,99043.05
2023-03-05T15:59:40.455Z,99041.84
2023-03-05T16:02:08.181Z,99039.46
2023-03-05T16:04:35.927Z,99035.48
2023-03-05T16:07:04.561Z,99038.46
2023-03-05T16:09:35.716Z,99035.39
2023-03-05T16:12:07.404Z,99038.49
2023-03-05T16:14:35.139Z,99046.20
2023-03-05T16:17:03.327Z,99041.69
2023-03-05T16:19:32.522Z,99039.68
2023-03-05T16:22:00.308Z,99041.86
2023-03-05T16:24:28.262Z,99044.07
2023-03-05T16:26:56.294Z,99036.55
2023-03-05T16:29:24.281Z,99037.06
2023-03-05T16:31:52.062Z,99034.41
2023-03-05T16:34:19.815Z,99035.73
2023-03-05T16:36:50.886Z,99038.41
2023-03-05T16:39:19.367Z,99041.89
2023-03-05T16:41:47.528Z,99047.80
2023-03-05T16:44:15.423Z,99048.35
2023-03-05T16:46:48.944Z,99050.61
2023-03-05T16:49:16.816Z,99049.52
2023-03-05T16:51:44.943Z,99048.63
2023-03-05T16:54:12.916Z,99059.67
2023-03-05T16:56:41.070Z,99055.92
2023-03-05T16:59:09.284Z,99059.75
2023-03-05T17:01:37.300Z,99060.01
2023-03-05T17:04:05.826Z,99060.11
2023-03-05T17:06:34.704Z,99059.41
2023-03-05T17:09:03.519Z,99064.45
2023-03-05T17:11:31.387Z,99062.54
2023-03-05T17:13:59.139Z,99066.05
2023-03-05T17:16:26.959Z,99061.27
2023-03-05T17:18:54.843Z,99057.10
2023-03-05T17:21:22.613Z,99062.84
2023-03-05T17:23:50.590Z,99059.33
2023-03-05T17:26:19.620Z,99056.42
2023-03-05T17:28:47.418Z,99061.71
2023-03-05T17:31:15.466Z,99055.15
2023-03-05T17:33:43.714Z,99059.34
2023-03-05T17:36:16.279Z,99054.65
2023-03-05T17:38:44.610Z,99053.42
2023-03-05T17:41:12.583Z,99056.40
2023-03-05T17:43:40.306Z,99056.79
2023-03-05T17:46:08.153Z,99056.64
2023-03-05T17:48:38.820Z,99057.34
2023-03-05T17:51:07.291Z,99055.79
2023-03-05T17:53:35.980Z,99052.98
2023-03-05T17:56:05.981Z,99053.12
2023-03-05T17:58:33.695Z,99056.02
2023-03-05T18:01:01.548Z,99059.08
2023-03-05T18:03:29.319Z,99056.73
2023-03-05T18:05:57.088Z,99063.08
2023-03-05T18:08:24.946Z,99062.16
2023-03-05T18:10:53.498Z,99061.92
2023-03-05T18:13:21.448Z,99062.32
2023-03-05T18:15:49.508Z,99058.27
2023-03-05T18:18:17.983Z,99061.67
2023-03-05T18:20:47.441Z,99061.02
2023-03-05T18:23:15.532Z,99057.50
2023-03-05T18:25:44.257Z,99055.76
2023-03-05T18:28:13.461Z,99052.94
2023-03-05T18:30:42.648Z,99056.91
2023-03-05T18:33:28.731Z,99058.52
2023-03-05T18:35:57.202Z,99055.61
2023-03-05T18:38:26.883Z,99052.55
2023-03-05T18:41:01.237Z,99058.31
2023-03-05T18:43:29.040Z,99053.11
2023-03-05T18:45:57.289Z,99050.45
2023-03-05T18:48:25.214Z,99048.50
2023-03-05T18:50:53.800Z,99046.98
2023-03-05T18:53:22.174Z,99050.20
2023-03-05T18:55:51.614Z,99050.56
2023-03-05T18:58:19.401Z,99050.35
2023-03-05T19:00:47.571Z,99054.31
2023-03-05T19:03:16.001Z,99054.39
2023-03-05T19:05:43.886Z,99052.16
2023-03-05T19:08:11.619Z,99052.42
2023-03-05T19:10:39.375Z,99052.17
2023-03-05T19:13:26.492Z,99053.56
2023-03-05T19:15:54.287Z,99050.83
2023-03-05T19:18:23.236Z,99053.23
2023-03-05T19:20:53.816Z,99055.80
2023-03-05T19:23:22.115Z,99054.73
2023-03-05T19:25:49.803Z,99050.65
2023-03-05T19:28:17.664Z,99062.30
2023-03-05T19:30:47.656Z,99050.48
2023-03-05T19:33:15.336Z,99057.72
2023-03-05T19:35:43.478Z,99055.08
2023-03-05T19:38:11.516Z,99054.86
2023-03-05T19:40:42.475Z,99055.00
2023-03-05T19:43:10.237Z,99056.35
2023-03-05T19:45:38.218Z,99057.20
2023-03-05T19:48:06.227Z,99058.67
2023-03-05T19:50:34.652Z,99058.64
2023-03-05T19:53:02.588Z,99058.96
2023-03-05T19:55:30.356Z,99054.05
2023-03-05T19:57:58.044Z,99053.45
2023-03-05T20:00:27.317Z,99055.32
2023-03-05T20:02:55.054Z,99053.39
2023-03-05T20:05:25.470Z,99053.52
2023-03-05T20:07:53.650Z,99053.55
2023-03-05T20:10:22.481Z,99048.08
2023-03-05T20:12:50.546Z,99047.13
2023-03-05T20:15:18.884Z,99047.37
2023-03-05T20:17:46.862Z,99048.52
2023-03-05T20:20:15.757Z,99046.81
2023-03-05T20:22:44.279Z,99047.52
2023-03-05T20:25:13.429Z,99044.64
2023-03-05T20:27:41.118Z,99042.66
2023-03-05T20:30:10.899Z,99048.22
2023-03-05T20:32:39.064Z,99045.17
2023-03-05T20:35:07.453Z,99047.77
2023-03-05T20:37:40.195Z,99042.42
2023-03-05T20:40:08.920Z,99041.45
2023-03-05T20:42:36.658Z,99043.41
2023-03-05T20:45:04.620Z,99041.70
2023-03-05T20:47:40.584Z,99038.95
2023-03-05T20:50:09.813Z,99038.98
2023-03-05T20:52:37.796Z,99034.60
2023-03-05T20:55:06.476Z,99033.33
2023-03-05T20:57:34.542Z,99032.74
2023-03-05T21:00:03.470Z,99030.20
2023-03-05T21:02:31.185Z,99030.13
2023-03-05T21:04:58.937Z,99032.67
2023-03-05T21:07:29.307Z,99025.84
2023-03-05T21:09:56.992Z,99028.95
2023-03-05T21:12:24.733Z,99031.58
2023-03-05T21:14:52.426Z,99031.12
2023-03-05T21:17:20.297Z,99031.48
2023-03-05T21:19:48.077Z,99028.31
2023-03-05T21:22:15.779Z,99028.93
2023-03-05T21:24:55.586Z,99027.17
2023-03-05T21:27:23.320Z,99020.84
2023-03-05T21:29:51.175Z,99021.10
2023-03-05T21:32:19.284Z,99023.55
2023-03-05T21:34:47.152Z,99021.55
2023-03-05T21:37:14.925Z,99020.27
2023-03-05T21:39:42.764Z,99019.17
2023-03-05T21:42:13.447Z,99021.75
2023-03-05T21:44:41.219Z,99022.39
2023-03-05T21:47:09.016Z,99024.71
2023-03-05T21:49:36.974Z,99026.52
2023-03-05T21:52:12.052Z,99030.66
2023-03-05T21:54:40.459Z,99024.20
2023-03-05T21:57:09.729Z,99023.36
2023-03-05T21:59:41.354Z,99023.91
2023-03-05T22:02:12.736Z,99021.56
2023-03-05T22:04:40.587Z,99019.54
2023-03-05T22:07:08.374Z,99015.41
2023-03-05T22:09:36.150Z,99014.00
2023-03-05T22:12:05.121Z,99015.77
2023-03-05T22:14:32.849Z,99013.25
2023-03-05T22:17:02.147Z,99016.48
2023-03-05T22:19:29.949Z,99010.17
2023-03-05T22:21:57.848Z,99011.53
2023-03-05T22:24:25.562Z,99010.60
2023-03-05T22:26:53.391Z,99005.00
2023-03-05T22:29:21.112Z,99004.34
2023-03-05T22:31:48.913Z,99004.16
2023-03-05T22:34:16.731Z,99005.86
2023-03-05T22:36:44.585Z,99002.61
2023-03-05T22:39:12.380Z,99002.97
2023-03-05T22:41:41.056Z,98999.05
2023-03-05T22:44:08.779Z,99002.02
2023-03-05T22:46:36.533Z,98999.00
2023-03-05T22:49:04.230Z,99002.83
2023-03-05T22:51:32.035Z,98998.64
2023-03-05T22:53:59.736Z,98995.20
2023-03-05T22:56:27.624Z,98997.88
2023-03-05T22:58:55.508Z,99001.34
2023-03-05T23:01:24.714Z,98990.88
2023-03-05T23:03:58.549Z,98990.81
2023-03-05T23:06:26.313Z,98989.33
2023-03-05T23:08:54.354Z,98988.24
2023-03-05T23:11:22.080Z,98987.79
2023-03-05T23:13:50.416Z,98984.17
2023-03-05T23:16:18.258Z,98984.09
2023-03-05T23:18:46.056Z,98982.16
2023-03-05T23:21:13.750Z,98989.08
2023-03-05T23:23:41.478Z,98986.11
2023-03-05T23:26:09.222Z,98980.43
2023-03-05T23:28:36.912Z,98979.92
2023-03-05T23:31:04.924Z,98981.30
2023-03-05T23:33:32.800Z,98978.45
2023-03-05T23:36:00.705Z,98973.81
2023-03-05T23:38:29.202Z,98972.65
2023-03-05T23:41:00.737Z,98969.86
2023-03-05T23:43:29.310Z,98970.89
2023-03-05T23:45:57.212Z,98970.11
2023-03-05T23:48:26.611Z,98965.60
2023-03-05T23:50:54.555Z,98967.66
2023-03-05T23:53:24.177Z,98967.82
2023-03-05T23:55:51.948Z,98967.45
2023-03-05T23:58:23.068Z,98967.58
